sensor_id;sensor_type;location;lat;lon;timestamp;P1;durP1;ratioP1;P2;durP2;ratioP2
52948;SDS011;38812;50.942;3.644;2023-05-20T00:00:02;14.02;;;7.60;;
52948;SDS011;38812;50.942;3.644;2023-05-20T00:02:28;15.90;;;7.40;;
52948;SDS011;38812;50.942;3.644;2023-05-20T00:04:53;18.00;;;7.93;;
52948;SDS011;38812;50.942;3.644;2023-05-20T00:07:18;20.38;;;8.25;;
52948;SDS011;38812;50.942;3.644;2023-05-20T00:09:44;22.75;;;8.18;;
52948;SDS011;38812;50.942;3.644;2023-05-20T00:12:09;17.40;;;8.38;;
52948;SDS011;38812;50.942;3.644;2023-05-20T00:14:35;16.75;;;8.40;;
52948;SDS011;38812;50.942;3.644;2023-05-20T00:17:00;16.60;;;7.95;;
52948;SDS011;38812;50.942;3.644;2023-05-20T00:19:26;25.55;;;8.50;;
52948;SDS011;38812;50.942;3.644;2023-05-20T00:21:51;21.48;;;8.23;;
52948;SDS011;38812;50.942;3.644;2023-05-20T00:24:16;18.17;;;8.25;;
52948;SDS011;38812;50.942;3.644;2023-05-20T00:26:42;14.30;;;8.75;;
52948;SDS011;38812;50.942;3.644;2023-05-20T00:29:07;24.52;;;9.30;;
52948;SDS011;38812;50.942;3.644;2023-05-20T00:31:32;22.88;;;9.45;;
52948;SDS011;38812;50.942;3.644;2023-05-20T00:33:58;15.02;;;8.70;;
52948;SDS011;38812;50.942;3.644;2023-05-20T00:36:23;17.80;;;9.18;;
52948;SDS011;38812;50.942;3.644;2023-05-20T00:38:48;21.08;;;10.02;;
52948;SDS011;38812;50.942;3.644;2023-05-20T00:41:14;18.05;;;10.68;;
52948;SDS011;38812;50.942;3.644;2023-05-20T00:43:39;20.05;;;8.60;;
52948;SDS011;38812;50.942;3.644;2023-05-20T00:46:05;20.80;;;9.90;;
52948;SDS011;38812;50.942;3.644;2023-05-20T00:48:36;20.10;;;10.23;;
52948;SDS011;38812;50.942;3.644;2023-05-20T00:51:05;24.27;;;9.38;;
52948;SDS011;38812;50.942;3.644;2023-05-20T00:53:31;16.33;;;8.55;;
52948;SDS011;38812;50.942;3.644;2023-05-20T00:55:58;16.20;;;8.95;;
52948;SDS011;38812;50.942;3.644;2023-05-20T00:58:24;15.57;;;7.40;;
52948;SDS011;38812;50.942;3.644;2023-05-20T01:00:49;15.10;;;7.95;;
52948;SDS011;38812;50.942;3.644;2023-05-20T01:03:15;17.13;;;8.32;;
52948;SDS011;38812;50.942;3.644;2023-05-20T01:05:42;13.02;;;7.20;;
52948;SDS011;38812;50.942;3.644;2023-05-20T01:08:07;20.08;;;6.97;;
52948;SDS011;38812;50.942;3.644;2023-05-20T01:10:33;16.70;;;6.88;;
52948;SDS011;38812;50.942;3.644;2023-05-20T01:13:02;15.88;;;6.90;;
52948;SDS011;38812;50.942;3.644;2023-05-20T01:15:32;15.85;;;7.00;;
52948;SDS011;38812;50.942;3.644;2023-05-20T01:18:00;7.75;;;5.80;;
52948;SDS011;38812;50.942;3.644;2023-05-20T01:20:29;14.48;;;6.10;;
52948;SDS011;38812;50.942;3.644;2023-05-20T01:22:56;17.08;;;6.20;;
52948;SDS011;38812;50.942;3.644;2023-05-20T01:25:22;15.70;;;6.72;;
52948;SDS011;38812;50.942;3.644;2023-05-20T01:27:51;16.95;;;7.00;;
52948;SDS011;38812;50.942;3.644;2023-05-20T01:30:19;13.15;;;6.38;;
52948;SDS011;38812;50.942;3.644;2023-05-20T01:32:54;10.73;;;5.50;;
52948;SDS011;38812;50.942;3.644;2023-05-20T01:35:26;17.73;;;6.28;;
52948;SDS011;38812;50.942;3.644;2023-05-20T01:37:53;14.73;;;5.75;;
52948;SDS011;38812;50.942;3.644;2023-05-20T01:40:20;15.32;;;6.10;;
52948;SDS011;38812;50.942;3.644;2023-05-20T01:42:46;8.68;;;4.38;;
52948;SDS011;38812;50.942;3.644;2023-05-20T01:45:16;14.27;;;5.32;;
52948;SDS011;38812;50.942;3.644;2023-05-20T01:47:44;9.88;;;4.63;;
52948;SDS011;38812;50.942;3.644;2023-05-20T01:50:10;11.25;;;5.35;;
52948;SDS011;38812;50.942;3.644;2023-05-20T01:52:35;15.77;;;5.38;;
52948;SDS011;38812;50.942;3.644;2023-05-20T01:55:01;13.80;;;5.28;;
52948;SDS011;38812;50.942;3.644;2023-05-20T01:57:26;12.88;;;5.05;;
52948;SDS011;38812;50.942;3.644;2023-05-20T01:59:51;10.30;;;4.40;;
52948;SDS011;38812;50.942;3.644;2023-05-20T02:02:17;10.63;;;5.28;;
52948;SDS011;38812;50.942;3.644;2023-05-20T02:04:44;11.93;;;5.07;;
52948;SDS011;38812;50.942;3.644;2023-05-20T02:07:13;9.85;;;4.82;;
52948;SDS011;38812;50.942;3.644;2023-05-20T02:09:39;11.73;;;4.22;;
52948;SDS011;38812;50.942;3.644;2023-05-20T02:12:05;15.57;;;5.50;;
52948;SDS011;38812;50.942;3.644;2023-05-20T02:14:31;13.68;;;4.20;;
52948;SDS011;38812;50.942;3.644;2023-05-20T02:16:56;9.27;;;3.83;;
52948;SDS011;38812;50.942;3.644;2023-05-20T02:19:22;12.00;;;4.20;;
52948;SDS011;38812;50.942;3.644;2023-05-20T02:21:47;6.05;;;3.95;;
52948;SDS011;38812;50.942;3.644;2023-05-20T02:24:14;6.90;;;3.55;;
52948;SDS011;38812;50.942;3.644;2023-05-20T02:26:40;9.88;;;4.55;;
52948;SDS011;38812;50.942;3.644;2023-05-20T02:29:05;13.60;;;4.07;;
52948;SDS011;38812;50.942;3.644;2023-05-20T02:31:31;17.27;;;4.55;;
52948;SDS011;38812;50.942;3.644;2023-05-20T02:33:56;11.07;;;4.28;;
52948;SDS011;38812;50.942;3.644;2023-05-20T02:36:22;7.82;;;4.10;;
52948;SDS011;38812;50.942;3.644;2023-05-20T02:38:47;11.73;;;4.43;;
52948;SDS011;38812;50.942;3.644;2023-05-20T02:41:13;11.80;;;3.97;;
52948;SDS011;38812;50.942;3.644;2023-05-20T02:43:38;10.65;;;4.07;;
52948;SDS011;38812;50.942;3.644;2023-05-20T02:46:04;10.63;;;3.97;;
52948;SDS011;38812;50.942;3.644;2023-05-20T02:48:30;12.68;;;4.20;;
52948;SDS011;38812;50.942;3.644;2023-05-20T02:50:55;7.80;;;3.53;;
52948;SDS011;38812;50.942;3.644;2023-05-20T02:53:21;12.40;;;3.92;;
52948;SDS011;38812;50.942;3.644;2023-05-20T02:55:46;6.93;;;3.80;;
52948;SDS011;38812;50.942;3.644;2023-05-20T02:58:12;7.43;;;3.78;;
52948;SDS011;38812;50.942;3.644;2023-05-20T03:00:38;14.23;;;4.25;;
52948;SDS011;38812;50.942;3.644;2023-05-20T03:03:08;6.78;;;3.25;;
52948;SDS011;38812;50.942;3.644;2023-05-20T03:05:34;15.07;;;3.97;;
52948;SDS011;38812;50.942;3.644;2023-05-20T03:08:06;8.73;;;3.88;;
52948;SDS011;38812;50.942;3.644;2023-05-20T03:10:36;8.45;;;3.78;;
52948;SDS011;38812;50.942;3.644;2023-05-20T03:13:03;15.77;;;4.43;;
52948;SDS011;38812;50.942;3.644;2023-05-20T03:15:32;8.77;;;3.15;;
52948;SDS011;38812;50.942;3.644;2023-05-20T03:17:57;14.15;;;3.72;;
52948;SDS011;38812;50.942;3.644;2023-05-20T03:20:23;7.43;;;3.97;;
52948;SDS011;38812;50.942;3.644;2023-05-20T03:22:50;9.95;;;3.47;;
52948;SDS011;38812;50.942;3.644;2023-05-20T03:25:15;10.80;;;3.85;;
52948;SDS011;38812;50.942;3.644;2023-05-20T03:27:40;14.38;;;4.65;;
52948;SDS011;38812;50.942;3.644;2023-05-20T03:30:07;8.48;;;3.90;;
52948;SDS011;38812;50.942;3.644;2023-05-20T03:32:33;13.52;;;3.78;;
52948;SDS011;38812;50.942;3.644;2023-05-20T03:34:58;9.68;;;4.43;;
52948;SDS011;38812;50.942;3.644;2023-05-20T03:37:24;8.93;;;3.90;;
52948;SDS011;38812;50.942;3.644;2023-05-20T03:39:49;9.80;;;4.57;;
52948;SDS011;38812;50.942;3.644;2023-05-20T03:42:15;7.00;;;3.65;;
52948;SDS011;38812;50.942;3.644;2023-05-20T03:44:40;13.50;;;3.75;;
52948;SDS011;38812;50.942;3.644;2023-05-20T03:47:05;17.98;;;4.32;;
52948;SDS011;38812;50.942;3.644;2023-05-20T03:49:31;11.77;;;4.13;;
52948;SDS011;38812;50.942;3.644;2023-05-20T03:51:56;13.77;;;4.53;;
52948;SDS011;38812;50.942;3.644;2023-05-20T03:54:21;9.70;;;3.83;;
52948;SDS011;38812;50.942;3.644;2023-05-20T03:56:47;9.80;;;3.75;;
52948;SDS011;38812;50.942;3.644;2023-05-20T03:59:13;7.07;;;3.80;;
52948;SDS011;38812;50.942;3.644;2023-05-20T04:01:38;14.48;;;3.92;;
52948;SDS011;38812;50.942;3.644;2023-05-20T04:04:04;8.50;;;4.43;;
52948;SDS011;38812;50.942;3.644;2023-05-20T04:06:29;18.83;;;5.53;;
52948;SDS011;38812;50.942;3.644;2023-05-20T04:08:55;7.78;;;4.00;;
52948;SDS011;38812;50.942;3.644;2023-05-20T04:11:21;11.82;;;4.85;;
52948;SDS011;38812;50.942;3.644;2023-05-20T04:13:46;12.20;;;4.28;;
52948;SDS011;38812;50.942;3.644;2023-05-20T04:16:12;11.50;;;4.72;;
52948;SDS011;38812;50.942;3.644;2023-05-20T04:18:37;15.07;;;4.63;;
52948;SDS011;38812;50.942;3.644;2023-05-20T04:21:03;6.85;;;4.07;;
52948;SDS011;38812;50.942;3.644;2023-05-20T04:23:29;13.27;;;4.90;;
52948;SDS011;38812;50.942;3.644;2023-05-20T04:25:54;10.60;;;4.65;;
52948;SDS011;38812;50.942;3.644;2023-05-20T04:28:19;11.23;;;4.10;;
52948;SDS011;38812;50.942;3.644;2023-05-20T04:30:47;10.35;;;4.50;;
52948;SDS011;38812;50.942;3.644;2023-05-20T04:33:14;10.43;;;4.38;;
52948;SDS011;38812;50.942;3.644;2023-05-20T04:35:40;10.05;;;4.40;;
52948;SDS011;38812;50.942;3.644;2023-05-20T04:38:05;8.05;;;4.25;;
52948;SDS011;38812;50.942;3.644;2023-05-20T04:40:32;11.65;;;4.55;;
52948;SDS011;38812;50.942;3.644;2023-05-20T04:43:00;9.55;;;3.97;;
52948;SDS011;38812;50.942;3.644;2023-05-20T04:45:26;12.57;;;4.55;;
52948;SDS011;38812;50.942;3.644;2023-05-20T04:47:51;15.00;;;5.18;;
52948;SDS011;38812;50.942;3.644;2023-05-20T04:50:17;12.63;;;4.18;;
52948;SDS011;38812;50.942;3.644;2023-05-20T04:52:42;11.32;;;4.60;;
52948;SDS011;38812;50.942;3.644;2023-05-20T04:55:10;9.70;;;4.47;;
52948;SDS011;38812;50.942;3.644;2023-05-20T04:57:37;12.60;;;5.10;;
52948;SDS011;38812;50.942;3.644;2023-05-20T05:00:06;9.10;;;4.68;;
52948;SDS011;38812;50.942;3.644;2023-05-20T05:02:33;10.48;;;4.10;;
52948;SDS011;38812;50.942;3.644;2023-05-20T05:04:59;7.85;;;5.07;;
52948;SDS011;38812;50.942;3.644;2023-05-20T05:07:25;8.23;;;3.97;;
52948;SDS011;38812;50.942;3.644;2023-05-20T05:09:50;8.88;;;4.55;;
52948;SDS011;38812;50.942;3.644;2023-05-20T05:12:15;15.23;;;3.83;;
52948;SDS011;38812;50.942;3.644;2023-05-20T05:14:41;8.27;;;3.35;;
52948;SDS011;38812;50.942;3.644;2023-05-20T05:17:06;8.75;;;4.20;;
52948;SDS011;38812;50.942;3.644;2023-05-20T05:19:31;8.98;;;3.63;;
52948;SDS011;38812;50.942;3.644;2023-05-20T05:21:57;11.75;;;3.67;;
52948;SDS011;38812;50.942;3.644;2023-05-20T05:24:22;7.03;;;3.63;;
52948;SDS011;38812;50.942;3.644;2023-05-20T05:26:51;8.23;;;3.40;;
52948;SDS011;38812;50.942;3.644;2023-05-20T05:29:18;7.13;;;3.10;;
52948;SDS011;38812;50.942;3.644;2023-05-20T05:31:43;13.55;;;3.97;;
52948;SDS011;38812;50.942;3.644;2023-05-20T05:34:09;10.68;;;3.80;;
52948;SDS011;38812;50.942;3.644;2023-05-20T05:36:34;9.35;;;3.90;;
52948;SDS011;38812;50.942;3.644;2023-05-20T05:39:00;7.07;;;3.00;;
52948;SDS011;38812;50.942;3.644;2023-05-20T05:41:25;11.05;;;3.85;;
52948;SDS011;38812;50.942;3.644;2023-05-20T05:43:51;7.22;;;3.53;;
52948;SDS011;38812;50.942;3.644;2023-05-20T05:46:16;8.73;;;3.00;;
52948;SDS011;38812;50.942;3.644;2023-05-20T05:48:42;10.73;;;3.05;;
52948;SDS011;38812;50.942;3.644;2023-05-20T05:51:12;9.20;;;4.68;;
52948;SDS011;38812;50.942;3.644;2023-05-20T05:53:38;14.07;;;4.15;;
52948;SDS011;38812;50.942;3.644;2023-05-20T05:56:04;9.75;;;3.38;;
52948;SDS011;38812;50.942;3.644;2023-05-20T05:58:29;13.50;;;3.97;;
52948;SDS011;38812;50.942;3.644;2023-05-20T06:00:55;7.10;;;3.15;;
52948;SDS011;38812;50.942;3.644;2023-05-20T06:03:20;6.40;;;3.35;;
52948;SDS011;38812;50.942;3.644;2023-05-20T06:05:45;11.68;;;3.95;;
52948;SDS011;38812;50.942;3.644;2023-05-20T06:08:11;8.70;;;3.78;;
52948;SDS011;38812;50.942;3.644;2023-05-20T06:10:36;8.80;;;4.30;;
52948;SDS011;38812;50.942;3.644;2023-05-20T06:13:02;8.95;;;4.00;;
52948;SDS011;38812;50.942;3.644;2023-05-20T06:15:27;7.00;;;3.50;;
52948;SDS011;38812;50.942;3.644;2023-05-20T06:17:52;6.55;;;3.35;;
52948;SDS011;38812;50.942;3.644;2023-05-20T06:20:18;10.02;;;3.80;;
52948;SDS011;38812;50.942;3.644;2023-05-20T06:22:43;6.38;;;3.28;;
52948;SDS011;38812;50.942;3.644;2023-05-20T06:25:09;8.25;;;3.70;;
52948;SDS011;38812;50.942;3.644;2023-05-20T06:27:34;8.55;;;3.95;;
52948;SDS011;38812;50.942;3.644;2023-05-20T06:30:00;6.53;;;3.47;;
52948;SDS011;38812;50.942;3.644;2023-05-20T06:32:26;11.50;;;3.90;;
52948;SDS011;38812;50.942;3.644;2023-05-20T06:34:51;13.27;;;3.20;;
52948;SDS011;38812;50.942;3.644;2023-05-20T06:37:17;7.78;;;3.25;;
52948;SDS011;38812;50.942;3.644;2023-05-20T06:39:42;5.53;;;3.17;;
52948;SDS011;38812;50.942;3.644;2023-05-20T06:42:07;14.40;;;3.65;;
52948;SDS011;38812;50.942;3.644;2023-05-20T06:44:33;9.40;;;3.85;;
52948;SDS011;38812;50.942;3.644;2023-05-20T06:46:58;11.88;;;3.53;;
52948;SDS011;38812;50.942;3.644;2023-05-20T06:49:24;11.18;;;4.72;;
52948;SDS011;38812;50.942;3.644;2023-05-20T06:51:49;14.73;;;5.47;;
52948;SDS011;38812;50.942;3.644;2023-05-20T06:54:14;10.25;;;3.83;;
52948;SDS011;38812;50.942;3.644;2023-05-20T06:56:40;8.70;;;3.65;;
52948;SDS011;38812;50.942;3.644;2023-05-20T06:59:05;13.75;;;3.83;;
52948;SDS011;38812;50.942;3.644;2023-05-20T07:01:32;6.88;;;3.72;;
52948;SDS011;38812;50.942;3.644;2023-05-20T07:03:57;10.05;;;3.58;;
52948;SDS011;38812;50.942;3.644;2023-05-20T07:06:22;13.15;;;3.70;;
52948;SDS011;38812;50.942;3.644;2023-05-20T07:08:48;9.02;;;3.95;;
52948;SDS011;38812;50.942;3.644;2023-05-20T07:11:13;9.50;;;3.72;;
52948;SDS011;38812;50.942;3.644;2023-05-20T07:13:38;6.20;;;3.47;;
52948;SDS011;38812;50.942;3.644;2023-05-20T07:16:04;9.38;;;3.90;;
52948;SDS011;38812;50.942;3.644;2023-05-20T07:18:29;6.78;;;3.42;;
52948;SDS011;38812;50.942;3.644;2023-05-20T07:20:55;11.13;;;3.70;;
52948;SDS011;38812;50.942;3.644;2023-05-20T07:23:21;7.07;;;3.30;;
52948;SDS011;38812;50.942;3.644;2023-05-20T07:25:47;8.93;;;3.75;;
52948;SDS011;38812;50.942;3.644;2023-05-20T07:28:14;6.88;;;3.67;;
52948;SDS011;38812;50.942;3.644;2023-05-20T07:30:41;9.32;;;5.18;;
52948;SDS011;38812;50.942;3.644;2023-05-20T07:33:06;13.27;;;3.53;;
52948;SDS011;38812;50.942;3.644;2023-05-20T07:35:32;7.38;;;4.15;;
52948;SDS011;38812;50.942;3.644;2023-05-20T07:37:57;6.57;;;3.63;;
52948;SDS011;38812;50.942;3.644;2023-05-20T07:40:22;9.50;;;3.35;;
52948;SDS011;38812;50.942;3.644;2023-05-20T07:42:48;7.50;;;3.88;;
52948;SDS011;38812;50.942;3.644;2023-05-20T07:45:13;6.70;;;3.17;;
52948;SDS011;38812;50.942;3.644;2023-05-20T07:47:39;12.85;;;4.32;;
52948;SDS011;38812;50.942;3.644;2023-05-20T07:50:04;9.30;;;3.13;;
52948;SDS011;38812;50.942;3.644;2023-05-20T07:52:30;9.32;;;3.78;;
52948;SDS011;38812;50.942;3.644;2023-05-20T07:54:56;5.50;;;3.40;;
52948;SDS011;38812;50.942;3.644;2023-05-20T07:57:21;12.45;;;3.17;;
52948;SDS011;38812;50.942;3.644;2023-05-20T07:59:46;7.68;;;3.72;;
52948;SDS011;38812;50.942;3.644;2023-05-20T08:02:12;10.70;;;3.75;;
52948;SDS011;38812;50.942;3.644;2023-05-20T08:04:37;8.73;;;3.58;;
52948;SDS011;38812;50.942;3.644;2023-05-20T08:07:02;12.27;;;3.88;;
52948;SDS011;38812;50.942;3.644;2023-05-20T08:09:29;6.38;;;3.35;;
52948;SDS011;38812;50.942;3.644;2023-05-20T08:11:55;11.00;;;3.45;;
52948;SDS011;38812;50.942;3.644;2023-05-20T08:14:20;17.42;;;3.97;;
52948;SDS011;38812;50.942;3.644;2023-05-20T08:30:34;7.32;;;3.40;;
52948;SDS011;38812;50.942;3.644;2023-05-20T08:33:00;8.73;;;3.10;;
52948;SDS011;38812;50.942;3.644;2023-05-20T08:35:25;11.05;;;3.20;;
52948;SDS011;38812;50.942;3.644;2023-05-20T08:37:51;5.88;;;3.53;;
52948;SDS011;38812;50.942;3.644;2023-05-20T08:40:19;3.28;;;2.90;;
52948;SDS011;38812;50.942;3.644;2023-05-20T08:42:46;10.90;;;2.95;;
52948;SDS011;38812;50.942;3.644;2023-05-20T08:45:14;6.45;;;2.97;;
52948;SDS011;38812;50.942;3.644;2023-05-20T08:47:42;7.20;;;4.05;;
52948;SDS011;38812;50.942;3.644;2023-05-20T08:50:08;7.05;;;3.03;;
52948;SDS011;38812;50.942;3.644;2023-05-20T08:52:36;5.20;;;2.50;;
52948;SDS011;38812;50.942;3.644;2023-05-20T08:55:03;5.18;;;2.53;;
52948;SDS011;38812;50.942;3.644;2023-05-20T08:57:32;5.85;;;2.70;;
52948;SDS011;38812;50.942;3.644;2023-05-20T08:59:58;6.50;;;2.85;;
52948;SDS011;38812;50.942;3.644;2023-05-20T09:02:24;4.20;;;2.65;;
52948;SDS011;38812;50.942;3.644;2023-05-20T09:04:49;6.85;;;2.95;;
52948;SDS011;38812;50.942;3.644;2023-05-20T09:07:26;5.88;;;3.05;;
52948;SDS011;38812;50.942;3.644;2023-05-20T09:09:52;7.43;;;2.92;;
52948;SDS011;38812;50.942;3.644;2023-05-20T09:12:19;7.40;;;2.83;;
52948;SDS011;38812;50.942;3.644;2023-05-20T09:14:45;4.20;;;2.97;;
52948;SDS011;38812;50.942;3.644;2023-05-20T09:17:10;7.68;;;3.35;;
52948;SDS011;38812;50.942;3.644;2023-05-20T09:19:36;9.20;;;3.00;;
52948;SDS011;38812;50.942;3.644;2023-05-20T09:22:02;6.63;;;3.65;;
52948;SDS011;38812;50.942;3.644;2023-05-20T09:24:28;7.13;;;2.40;;
52948;SDS011;38812;50.942;3.644;2023-05-20T10:02:47;9.65;;;2.13;;
52948;SDS011;38812;50.942;3.644;2023-05-20T10:05:20;2.55;;;2.00;;
52948;SDS011;38812;50.942;3.644;2023-05-20T10:18:38;4.93;;;2.50;;
52948;SDS011;38812;50.942;3.644;2023-05-20T10:21:14;4.43;;;2.42;;
52948;SDS011;38812;50.942;3.644;2023-05-20T10:23:40;5.20;;;1.98;;
52948;SDS011;38812;50.942;3.644;2023-05-20T10:26:06;6.25;;;3.20;;
52948;SDS011;38812;50.942;3.644;2023-05-20T10:28:35;3.30;;;2.25;;
52948;SDS011;38812;50.942;3.644;2023-05-20T10:31:02;5.35;;;2.17;;
52948;SDS011;38812;50.942;3.644;2023-05-20T10:33:42;4.95;;;2.47;;
52948;SDS011;38812;50.942;3.644;2023-05-20T10:36:09;4.43;;;2.33;;
52948;SDS011;38812;50.942;3.644;2023-05-20T10:38:35;8.30;;;2.33;;
52948;SDS011;38812;50.942;3.644;2023-05-20T10:41:07;7.22;;;2.40;;
52948;SDS011;38812;50.942;3.644;2023-05-20T10:43:35;9.27;;;2.95;;
52948;SDS011;38812;50.942;3.644;2023-05-20T10:46:00;4.35;;;2.30;;
52948;SDS011;38812;50.942;3.644;2023-05-20T10:48:27;2.55;;;2.20;;
52948;SDS011;38812;50.942;3.644;2023-05-20T10:50:57;4.47;;;2.15;;
52948;SDS011;38812;50.942;3.644;2023-05-20T10:53:25;5.10;;;2.10;;
52948;SDS011;38812;50.942;3.644;2023-05-20T10:55:51;4.95;;;2.88;;
52948;SDS011;38812;50.942;3.644;2023-05-20T10:58:19;5.50;;;2.25;;
52948;SDS011;38812;50.942;3.644;2023-05-20T11:00:47;7.28;;;2.70;;
52948;SDS011;38812;50.942;3.644;2023-05-20T11:03:14;6.30;;;2.38;;
52948;SDS011;38812;50.942;3.644;2023-05-20T11:05:40;10.93;;;2.28;;
52948;SDS011;38812;50.942;3.644;2023-05-20T11:08:07;4.65;;;2.78;;
52948;SDS011;38812;50.942;3.644;2023-05-20T11:10:34;2.70;;;1.92;;
52948;SDS011;38812;50.942;3.644;2023-05-20T11:13:01;10.18;;;3.55;;
52948;SDS011;38812;50.942;3.644;2023-05-20T11:15:28;4.47;;;2.40;;
52948;SDS011;38812;50.942;3.644;2023-05-20T11:17:55;7.05;;;2.65;;
52948;SDS011;38812;50.942;3.644;2023-05-20T11:20:23;7.57;;;2.50;;
52948;SDS011;38812;50.942;3.644;2023-05-20T11:22:50;5.25;;;1.88;;
52948;SDS011;38812;50.942;3.644;2023-05-20T11:25:16;6.20;;;2.47;;
52948;SDS011;38812;50.942;3.644;2023-05-20T11:27:43;6.45;;;2.22;;
52948;SDS011;38812;50.942;3.644;2023-05-20T11:30:09;5.20;;;2.28;;
52948;SDS011;38812;50.942;3.644;2023-05-20T11:32:37;5.78;;;1.90;;
52948;SDS011;38812;50.942;3.644;2023-05-20T11:35:02;3.83;;;1.92;;
52948;SDS011;38812;50.942;3.644;2023-05-20T11:37:28;4.00;;;2.08;;
52948;SDS011;38812;50.942;3.644;2023-05-20T11:40:04;4.72;;;2.25;;
52948;SDS011;38812;50.942;3.644;2023-05-20T11:42:32;5.88;;;2.50;;
52948;SDS011;38812;50.942;3.644;2023-05-20T11:45:01;4.70;;;2.22;;
52948;SDS011;38812;50.942;3.644;2023-05-20T11:47:27;5.40;;;3.25;;
52948;SDS011;38812;50.942;3.644;2023-05-20T11:49:52;6.22;;;2.33;;
52948;SDS011;38812;50.942;3.644;2023-05-20T11:52:18;5.35;;;2.40;;
52948;SDS011;38812;50.942;3.644;2023-05-20T11:54:43;3.70;;;2.08;;
52948;SDS011;38812;50.942;3.644;2023-05-20T11:57:11;5.18;;;2.20;;
52948;SDS011;38812;50.942;3.644;2023-05-20T11:59:37;6.13;;;2.25;;
52948;SDS011;38812;50.942;3.644;2023-05-20T12:02:03;7.90;;;2.75;;
52948;SDS011;38812;50.942;3.644;2023-05-20T12:04:28;3.60;;;2.38;;
52948;SDS011;38812;50.942;3.644;2023-05-20T12:06:54;6.70;;;2.28;;
52948;SDS011;38812;50.942;3.644;2023-05-20T12:09:19;5.43;;;2.35;;
52948;SDS011;38812;50.942;3.644;2023-05-20T12:11:46;5.03;;;2.67;;
52948;SDS011;38812;50.942;3.644;2023-05-20T12:14:11;4.28;;;2.65;;
52948;SDS011;38812;50.942;3.644;2023-05-20T12:16:37;7.38;;;2.45;;
52948;SDS011;38812;50.942;3.644;2023-05-20T12:19:02;2.90;;;1.90;;
52948;SDS011;38812;50.942;3.644;2023-05-20T12:21:28;5.40;;;2.50;;
52948;SDS011;38812;50.942;3.644;2023-05-20T12:23:55;2.85;;;1.90;;
52948;SDS011;38812;50.942;3.644;2023-05-20T12:26:28;5.32;;;2.20;;
52948;SDS011;38812;50.942;3.644;2023-05-20T12:31:20;7.13;;;2.10;;
52948;SDS011;38812;50.942;3.644;2023-05-20T12:33:45;5.82;;;2.15;;
52948;SDS011;38812;50.942;3.644;2023-05-20T12:36:11;4.07;;;2.35;;
52948;SDS011;38812;50.942;3.644;2023-05-20T12:38:37;3.80;;;2.25;;
52948;SDS011;38812;50.942;3.644;2023-05-20T12:41:02;4.15;;;2.40;;
52948;SDS011;38812;50.942;3.644;2023-05-20T12:43:28;3.17;;;1.90;;
52948;SDS011;38812;50.942;3.644;2023-05-20T12:45:54;5.13;;;2.00;;
52948;SDS011;38812;50.942;3.644;2023-05-20T12:48:19;4.35;;;2.10;;
52948;SDS011;38812;50.942;3.644;2023-05-20T12:50:45;3.63;;;2.28;;
52948;SDS011;38812;50.942;3.644;2023-05-20T12:53:10;5.85;;;2.30;;
52948;SDS011;38812;50.942;3.644;2023-05-20T12:55:36;9.57;;;2.80;;
52948;SDS011;38812;50.942;3.644;2023-05-20T12:58:02;5.53;;;2.20;;
52948;SDS011;38812;50.942;3.644;2023-05-20T13:00:28;5.30;;;2.40;;
52948;SDS011;38812;50.942;3.644;2023-05-20T13:02:53;6.93;;;2.15;;
52948;SDS011;38812;50.942;3.644;2023-05-20T13:05:18;4.18;;;2.22;;
52948;SDS011;38812;50.942;3.644;2023-05-20T13:07:44;4.95;;;2.30;;
52948;SDS011;38812;50.942;3.644;2023-05-20T13:10:10;4.35;;;2.25;;
52948;SDS011;38812;50.942;3.644;2023-05-20T13:12:35;3.17;;;2.25;;
52948;SDS011;38812;50.942;3.644;2023-05-20T13:15:01;3.45;;;2.30;;
52948;SDS011;38812;50.942;3.644;2023-05-20T13:17:28;3.08;;;2.00;;
52948;SDS011;38812;50.942;3.644;2023-05-20T13:19:53;4.35;;;2.10;;
52948;SDS011;38812;50.942;3.644;2023-05-20T13:22:19;3.88;;;2.10;;
52948;SDS011;38812;50.942;3.644;2023-05-20T13:24:45;7.30;;;2.85;;
52948;SDS011;38812;50.942;3.644;2023-05-20T13:27:10;6.35;;;2.65;;
52948;SDS011;38812;50.942;3.644;2023-05-20T13:29:36;7.75;;;2.13;;
52948;SDS011;38812;50.942;3.644;2023-05-20T13:32:01;10.88;;;2.90;;
52948;SDS011;38812;50.942;3.644;2023-05-20T13:34:28;4.40;;;2.08;;
52948;SDS011;38812;50.942;3.644;2023-05-20T13:36:54;5.15;;;2.67;;
52948;SDS011;38812;50.942;3.644;2023-05-20T13:39:19;4.95;;;2.22;;
52948;SDS011;38812;50.942;3.644;2023-05-20T13:41:45;4.10;;;2.22;;
52948;SDS011;38812;50.942;3.644;2023-05-20T13:44:11;3.70;;;2.30;;
52948;SDS011;38812;50.942;3.644;2023-05-20T13:46:36;10.35;;;2.30;;
52948;SDS011;38812;50.942;3.644;2023-05-20T13:49:01;2.10;;;1.90;;
52948;SDS011;38812;50.942;3.644;2023-05-20T13:51:29;2.20;;;2.00;;
52948;SDS011;38812;50.942;3.644;2023-05-20T13:53:55;2.30;;;1.80;;
52948;SDS011;38812;50.942;3.644;2023-05-20T13:56:21;6.50;;;2.83;;
52948;SDS011;38812;50.942;3.644;2023-05-20T13:58:46;6.18;;;2.33;;
52948;SDS011;38812;50.942;3.644;2023-05-20T14:01:12;4.72;;;2.10;;
52948;SDS011;38812;50.942;3.644;2023-05-20T14:03:39;3.45;;;2.17;;
52948;SDS011;38812;50.942;3.644;2023-05-20T14:06:05;5.28;;;2.47;;
52948;SDS011;38812;50.942;3.644;2023-05-20T14:08:31;4.80;;;2.45;;
52948;SDS011;38812;50.942;3.644;2023-05-20T14:10:56;4.90;;;2.33;;
52948;SDS011;38812;50.942;3.644;2023-05-20T14:13:22;3.92;;;2.20;;
52948;SDS011;38812;50.942;3.644;2023-05-20T14:15:48;3.28;;;2.17;;
52948;SDS011;38812;50.942;3.644;2023-05-20T14:18:15;8.80;;;2.70;;
52948;SDS011;38812;50.942;3.644;2023-05-20T14:20:41;3.50;;;2.17;;
52948;SDS011;38812;50.942;3.644;2023-05-20T14:23:06;10.60;;;2.10;;
52948;SDS011;38812;50.942;3.644;2023-05-20T14:25:31;7.95;;;2.33;;
52948;SDS011;38812;50.942;3.644;2023-05-20T14:27:57;5.47;;;2.00;;
52948;SDS011;38812;50.942;3.644;2023-05-20T14:30:22;9.65;;;2.17;;
52948;SDS011;38812;50.942;3.644;2023-05-20T14:32:48;2.35;;;1.73;;
52948;SDS011;38812;50.942;3.644;2023-05-20T14:35:14;6.20;;;2.92;;
52948;SDS011;38812;50.942;3.644;2023-05-20T14:37:40;4.55;;;2.60;;
52948;SDS011;38812;50.942;3.644;2023-05-20T14:40:06;3.95;;;2.03;;
52948;SDS011;38812;50.942;3.644;2023-05-20T14:42:32;6.00;;;2.17;;
52948;SDS011;38812;50.942;3.644;2023-05-20T14:44:57;4.97;;;2.25;;
52948;SDS011;38812;50.942;3.644;2023-05-20T14:47:23;5.70;;;2.47;;
52948;SDS011;38812;50.942;3.644;2023-05-20T14:49:49;6.50;;;2.33;;
52948;SDS011;38812;50.942;3.644;2023-05-20T14:52:15;2.45;;;2.08;;
52948;SDS011;38812;50.942;3.644;2023-05-20T14:54:41;5.20;;;2.45;;
52948;SDS011;38812;50.942;3.644;2023-05-20T14:57:07;4.28;;;2.83;;
52948;SDS011;38812;50.942;3.644;2023-05-20T14:59:32;4.35;;;2.20;;
52948;SDS011;38812;50.942;3.644;2023-05-20T15:01:58;6.40;;;2.58;;
52948;SDS011;38812;50.942;3.644;2023-05-20T15:04:23;6.72;;;2.75;;
52948;SDS011;38812;50.942;3.644;2023-05-20T15:06:48;3.53;;;2.55;;
52948;SDS011;38812;50.942;3.644;2023-05-20T15:09:15;7.38;;;2.67;;
52948;SDS011;38812;50.942;3.644;2023-05-20T15:11:40;5.95;;;2.28;;
52948;SDS011;38812;50.942;3.644;2023-05-20T15:14:05;3.10;;;2.10;;
52948;SDS011;38812;50.942;3.644;2023-05-20T15:16:31;4.50;;;2.58;;
52948;SDS011;38812;50.942;3.644;2023-05-20T15:18:56;3.55;;;2.60;;
52948;SDS011;38812;50.942;3.644;2023-05-20T15:21:21;5.68;;;2.22;;
52948;SDS011;38812;50.942;3.644;2023-05-20T15:23:47;4.18;;;2.78;;
52948;SDS011;38812;50.942;3.644;2023-05-20T15:26:12;3.13;;;2.28;;
52948;SDS011;38812;50.942;3.644;2023-05-20T15:28:38;3.85;;;2.08;;
52948;SDS011;38812;50.942;3.644;2023-05-20T15:31:04;4.07;;;3.10;;
52948;SDS011;38812;50.942;3.644;2023-05-20T15:33:30;5.72;;;2.13;;
52948;SDS011;38812;50.942;3.644;2023-05-20T15:35:55;6.00;;;2.20;;
52948;SDS011;38812;50.942;3.644;2023-05-20T15:38:21;3.22;;;2.33;;